Time;durP1;ratioP1;P1;durP2;ratioP2;P2;SDS_P1;SDS_P2;PMS_P1;PMS_P2;Temp;Humidity;BMP_temperature;BMP_pressure;BME280_temperature;BME280_humidity;BME280_pressure;Samples;Min_cycle;Max_cycle;Signal;HPM_P1;HPM_P2
2023/06/10 00:00:55;;;;;;;16.13;14.43;;;18.00;99.90;;;;;;5033107;28;20091;-68
2023/06/10 00:03:23;;;;;;;18.50;15.57;;;18.00;99.90;;;;;;5032945;28;20108;-68
2023/06/10 00:05:49;;;;;;;15.73;14.10;;;18.00;99.90;;;;;;5033123;28;20030;-68
2023/06/10 00:08:19;;;;;;;18.50;15.75;;;17.90;99.90;;;;;;5032872;28;20026;-68
2023/06/10 00:10:44;;;;;;;16.15;14.45;;;18.00;99.90;;;;;;5032800;28;20030;-67
2023/06/10 00:13:11;;;;;;;16.88;14.90;;;18.00;99.90;;;;;;5032790;28;20079;-68
2023/06/10 00:15:37;;;;;;;16.13;14.40;;;18.00;99.90;;;;;;5033024;28;20057;-67
2023/06/10 00:18:03;;;;;;;23.58;14.38;;;18.00;99.90;;;;;;5032870;28;20032;-68
2023/06/10 00:20:30;;;;;;;18.60;15.13;;;18.00;99.90;;;;;;5032999;28;20483;-67
2023/06/10 00:22:56;;;;;;;16.33;14.60;;;18.00;99.90;;;;;;5032732;28;20034;-67
2023/06/10 00:25:22;;;;;;;15.63;13.85;;;18.00;99.90;;;;;;5032432;28;20393;-68
2023/06/10 00:27:48;;;;;;;18.25;14.48;;;18.10;99.90;;;;;;5031695;28;20025;-67
2023/06/10 00:30:14;;;;;;;18.55;14.82;;;18.10;99.90;;;;;;5032504;28;20049;-68
2023/06/10 00:32:39;;;;;;;16.45;13.70;;;18.00;99.90;;;;;;5032674;28;20112;-67
2023/06/10 00:35:06;;;;;;;16.17;12.85;;;17.90;99.90;;;;;;5032707;28;20084;-67
2023/06/10 00:37:34;;;;;;;20.85;14.82;;;17.90;99.90;;;;;;5034964;28;20033;-67
2023/06/10 00:40:00;;;;;;;15.90;13.85;;;17.90;99.90;;;;;;5036311;28;20029;-68
2023/06/10 00:42:26;;;;;;;18.48;13.43;;;17.80;99.90;;;;;;5036151;28;20391;-68
2023/06/10 00:44:51;;;;;;;17.50;13.73;;;17.80;99.90;;;;;;5036146;28;20026;-67
2023/06/10 00:47:17;;;;;;;15.48;13.02;;;17.80;99.90;;;;;;5034897;28;20433;-68
2023/06/10 00:49:44;;;;;;;15.90;12.55;;;17.70;98.50;;;;;;5035987;28;20111;-68
2023/06/10 00:52:10;;;;;;;17.90;13.48;;;17.80;35.70;;;;;;5036151;28;20159;-68
2023/06/10 00:54:37;;;;;;;18.75;13.00;;;17.70;72.20;;;;;;5035819;28;20030;-67
2023/06/10 00:57:04;;;;;;;15.30;13.30;;;17.70;16.40;;;;;;5035913;28;20017;-68
2023/06/10 00:59:30;;;;;;;15.63;12.55;;;17.70;9.50;;;;;;5034376;28;20037;-68
2023/06/10 01:01:56;;;;;;;14.88;12.20;;;17.60;15.70;;;;;;5035796;28;20039;-68
2023/06/10 01:04:23;;;;;;;15.43;13.18;;;17.60;84.50;;;;;;5035510;28;20025;-68
2023/06/10 01:07:15;;;;;;;18.05;13.50;;;17.50;99.90;;;;;;5035676;28;20112;-67
2023/06/10 01:10:04;;;;;;;17.55;13.25;;;17.40;99.90;;;;;;5035550;28;20076;-67
2023/06/10 01:12:54;;;;;;;16.80;12.68;;;17.30;99.90;;;;;;5035558;28;20471;-67
2023/06/10 01:15:21;;;;;;;19.00;13.52;;;17.30;99.90;;;;;;5035584;28;20475;-67
2023/06/10 01:18:08;;;;;;;19.92;13.93;;;17.30;99.90;;;;;;5035486;28;20530;-67
2023/06/10 01:20:36;;;;;;;17.25;13.48;;;17.30;99.90;;;;;;5035554;28;20029;-67
2023/06/10 01:23:03;;;;;;;16.42;12.70;;;17.20;99.90;;;;;;5035605;28;20498;-67
2023/06/10 01:25:32;;;;;;;17.85;13.27;;;17.20;99.90;;;;;;5035346;28;20515;-67
2023/06/10 01:28:13;;;;;;;17.20;12.75;;;17.20;99.90;;;;;;5035321;28;20029;-68
2023/06/10 01:30:49;;;;;;;15.52;12.35;;;17.10;99.90;;;;;;5033981;28;20568;-68
2023/06/10 01:33:20;;;;;;;15.95;12.32;;;17.10;99.90;;;;;;5035255;28;20021;-67
2023/06/10 01:35:47;;;;;;;16.83;12.65;;;17.10;99.90;;;;;;5035322;28;20033;-67
2023/06/10 01:38:15;;;;;;;17.92;13.10;;;16.90;99.90;;;;;;5035345;28;20026;-68
2023/06/10 01:40:42;;;;;;;18.20;12.45;;;16.90;99.90;;;;;;5035133;28;20069;-68
2023/06/10 01:43:07;;;;;;;14.93;11.98;;;16.80;99.90;;;;;;5035111;28;20064;-67
2023/06/10 01:45:33;;;;;;;20.20;11.43;;;16.80;99.90;;;;;;5034995;28;20103;-68
2023/06/10 01:47:58;;;;;;;18.20;11.98;;;16.80;99.90;;;;;;5034918;28;20084;-67
2023/06/10 01:50:24;;;;;;;14.68;12.07;;;16.80;99.90;;;;;;5034736;28;20435;-67
2023/06/10 01:52:49;;;;;;;16.00;11.93;;;16.80;74.40;;;;;;5034841;28;20422;-67
2023/06/10 01:55:15;;;;;;;20.13;10.73;;;16.80;16.50;;;;;;5035016;28;20025;-67
2023/06/10 01:57:40;;;;;;;15.80;10.77;;;16.80;1.00;;;;;;5034807;28;20025;-67
2023/06/10 02:00:07;;;;;;;14.40;10.75;;;16.80;1.00;;;;;;5034464;28;20498;-67
2023/06/10 02:02:33;;;;;;;16.52;11.25;;;16.70;22.60;;;;;;5034580;28;20041;-67
2023/06/10 02:04:58;;;;;;;15.88;10.50;;;16.70;12.10;;;;;;5034699;28;20032;-67
2023/06/10 02:07:24;;;;;;;13.25;10.50;;;16.70;59.90;;;;;;5034560;28;20026;-67
2023/06/10 02:09:49;;;;;;;13.65;10.45;;;16.60;8.40;;;;;;5034414;28;20033;-68
2023/06/10 02:12:15;;;;;;;16.80;10.60;;;16.60;1.00;;;;;;5034681;28;20026;-68
2023/06/10 02:14:41;;;;;;;16.30;10.32;;;16.60;1.30;;;;;;5034544;28;20426;-67
2023/06/10 02:17:06;;;;;;;16.60;10.85;;;16.60;1.00;;;;;;5034288;28;20041;-68
2023/06/10 02:19:32;;;;;;;16.92;10.98;;;16.60;1.00;;;;;;5034913;28;20038;-67
2023/06/10 02:21:57;;;;;;;18.70;11.77;;;16.70;1.00;;;;;;5034480;28;20104;-67
2023/06/10 02:24:23;;;;;;;14.20;9.95;;;16.70;1.00;;;;;;5034372;28;20139;-67
2023/06/10 02:26:48;;;;;;;14.30;11.23;;;16.60;1.00;;;;;;5034204;28;20033;-67
2023/06/10 02:29:14;;;;;;;15.25;10.98;;;16.60;1.00;;;;;;5033912;28;20049;-67
2023/06/10 02:31:40;;;;;;;15.13;10.15;;;16.50;1.00;;;;;;5034165;28;20360;-67
2023/06/10 02:34:06;;;;;;;16.95;11.25;;;16.50;1.00;;;;;;5034113;28;20083;-68
2023/06/10 02:36:31;;;;;;;12.80;10.68;;;16.40;99.90;;;;;;5033950;28;20025;-68
2023/06/10 02:38:57;;;;;;;13.45;10.13;;;16.30;87.40;;;;;;5033980;28;20151;-67
2023/06/10 02:41:24;;;;;;;16.35;10.63;;;16.30;99.90;;;;;;5034080;28;20025;-67
2023/06/10 02:43:50;;;;;;;15.55;10.27;;;16.20;99.90;;;;;;5033939;28;20028;-67
2023/06/10 02:46:15;;;;;;;14.20;10.18;;;16.10;99.90;;;;;;5033872;28;20391;-67
2023/06/10 02:48:43;;;;;;;15.45;9.82;;;16.10;99.90;;;;;;5033569;28;20021;-67
2023/06/10 02:51:09;;;;;;;13.23;9.80;;;16.10;99.90;;;;;;5034041;28;20033;-67
2023/06/10 02:53:35;;;;;;;15.15;9.82;;;16.10;99.90;;;;;;5033741;28;20045;-67
2023/06/10 02:56:01;;;;;;;18.23;10.02;;;16.10;99.90;;;;;;5033701;28;20057;-68
2023/06/10 02:58:27;;;;;;;12.40;9.95;;;16.10;99.90;;;;;;5033638;28;20356;-67
2023/06/10 03:00:53;;;;;;;12.75;10.23;;;16.00;99.90;;;;;;5033349;28;20040;-67
2023/06/10 03:03:18;;;;;;;13.45;9.85;;;16.00;99.90;;;;;;5033817;28;20033;-67
2023/06/10 03:05:44;;;;;;;16.88;10.38;;;16.00;99.90;;;;;;5033623;28;20032;-68
2023/06/10 03:08:09;;;;;;;16.73;10.27;;;15.90;99.90;;;;;;5033568;28;20033;-67
2023/06/10 03:10:35;;;;;;;12.07;10.18;;;15.90;99.90;;;;;;5033524;28;20029;-67
2023/06/10 03:13:00;;;;;;;16.50;10.30;;;15.80;99.90;;;;;;5033184;28;20132;-67
2023/06/10 03:15:28;;;;;;;15.13;10.70;;;15.80;99.90;;;;;;5033610;28;20029;-68
2023/06/10 03:17:54;;;;;;;14.98;10.63;;;15.80;99.90;;;;;;5033580;28;20079;-68
2023/06/10 03:20:21;;;;;;;15.82;10.70;;;15.80;99.90;;;;;;5033324;28;20542;-67
2023/06/10 03:22:47;;;;;;;13.45;10.35;;;15.80;99.90;;;;;;5033166;28;20112;-67
2023/06/10 03:25:13;;;;;;;16.70;10.75;;;15.80;1.00;;;;;;5033325;28;20125;-67
2023/06/10 03:27:40;;;;;;;13.35;10.30;;;15.80;1.00;;;;;;5033345;28;20398;-67
2023/06/10 03:30:06;;;;;;;14.75;9.77;;;15.80;99.90;;;;;;5033096;28;20084;-67
2023/06/10 03:32:32;;;;;;;15.43;10.32;;;15.90;99.90;;;;;;5033443;28;20021;-67
2023/06/10 03:34:58;;;;;;;12.77;9.93;;;15.90;99.90;;;;;;5033122;28;20491;-67
2023/06/10 03:37:25;;;;;;;12.85;9.75;;;15.90;99.90;;;;;;5033334;28;20033;-67
2023/06/10 03:39:50;;;;;;;15.80;10.23;;;16.00;99.90;;;;;;5033168;28;20053;-67
2023/06/10 03:42:16;;;;;;;14.43;9.95;;;16.00;99.90;;;;;;5033198;28;20072;-67
2023/06/10 03:44:41;;;;;;;13.52;10.38;;;15.90;99.90;;;;;;5033156;28;20104;-67
2023/06/10 03:47:07;;;;;;;14.32;9.68;;;15.90;99.90;;;;;;5033185;28;20534;-67
2023/06/10 03:49:33;;;;;;;17.05;10.27;;;15.90;99.90;;;;;;5032942;28;20065;-67
2023/06/10 03:51:58;;;;;;;14.27;10.00;;;16.00;99.90;;;;;;5032879;28;20033;-67
2023/06/10 03:54:25;;;;;;;15.35;9.77;;;16.10;99.90;;;;;;5033214;28;20083;-68
2023/06/10 03:56:50;;;;;;;13.68;9.30;;;16.10;99.90;;;;;;5033034;28;20390;-67
2023/06/10 03:59:16;;;;;;;12.82;9.32;;;16.20;99.90;;;;;;5032967;28;20026;-67
2023/06/10 04:01:43;;;;;;;15.15;9.82;;;16.20;99.90;;;;;;5032931;28;20057;-67
2023/06/10 04:04:09;;;;;;;14.98;9.43;;;16.30;99.90;;;;;;5033170;28;20029;-67
2023/06/10 04:06:34;;;;;;;11.65;8.55;;;16.40;37.30;;;;;;5033133;28;20037;-67
2023/06/10 04:09:00;;;;;;;11.20;8.05;;;16.50;1.00;;;;;;5032531;28;20029;-68
2023/06/10 04:11:25;;;;;;;13.90;8.45;;;16.60;1.00;;;;;;5033425;28;20021;-67
2023/06/10 04:13:51;;;;;;;13.25;8.75;;;16.70;99.90;;;;;;5036712;28;20044;-67
2023/06/10 04:16:17;;;;;;;13.23;9.05;;;16.80;99.90;;;;;;5036698;28;20026;-67
2023/06/10 04:18:42;;;;;;;13.18;8.48;;;16.80;99.90;;;;;;5036696;28;20018;-67
2023/06/10 04:21:08;;;;;;;14.18;8.68;;;16.90;99.90;;;;;;5036584;28;20025;-67
2023/06/10 04:23:36;;;;;;;14.65;8.63;;;17.00;14.80;;;;;;5036677;28;20021;-67
2023/06/10 04:26:02;;;;;;;15.07;8.93;;;17.10;99.90;;;;;;5036440;28;20030;-67
2023/06/10 04:28:28;;;;;;;11.95;8.00;;;17.20;99.90;;;;;;5036187;28;20037;-67
2023/06/10 04:30:53;;;;;;;10.70;8.43;;;17.40;99.90;;;;;;5036338;28;20372;-67
2023/06/10 04:33:19;;;;;;;13.30;8.32;;;17.60;1.00;;;;;;5036536;28;20029;-68
2023/06/10 04:35:45;;;;;;;11.43;7.70;;;17.90;1.00;;;;;;5036300;28;20021;-68
2023/06/10 04:38:11;;;;;;;14.75;8.32;;;18.50;1.00;;;;;;5036492;28;20057;-68
2023/06/10 04:40:37;;;;;;;13.68;7.60;;;19.60;52.60;;;;;;5036189;28;20049;-68
2023/06/10 04:43:03;;;;;;;10.00;6.75;;;20.70;99.90;;;;;;5036333;28;20515;-68
2023/06/10 04:45:29;;;;;;;8.80;6.65;;;21.50;1.00;;;;;;5036297;28;20133;-69
2023/06/10 04:47:55;;;;;;;12.02;6.88;;;21.90;99.90;;;;;;5036084;28;20544;-68
2023/06/10 04:50:21;;;;;;;9.15;6.85;;;22.30;99.90;;;;;;5036007;28;20022;-68
2023/06/10 04:52:47;;;;;;;10.35;6.60;;;23.20;99.90;;;;;;5036032;28;20091;-68
2023/06/10 04:55:12;;;;;;;12.93;6.75;;;23.40;1.00;;;;;;5036160;28;20101;-68
2023/06/10 04:57:38;;;;;;;7.05;5.88;;;23.80;1.00;;;;;;5035962;28;20108;-69
2023/06/10 05:00:05;;;;;;;9.27;5.80;;;24.20;1.00;;;;;;5035952;28;20033;-69
2023/06/10 05:02:31;;;;;;;8.77;6.22;;;24.20;1.00;;;;;;5036036;28;20033;-69
2023/06/10 05:04:57;;;;;;;9.90;6.03;;;24.90;99.90;;;;;;5035737;28;20099;-68
2023/06/10 05:07:23;;;;;;;9.98;5.88;;;25.00;99.90;;;;;;5035879;28;20021;-69
2023/06/10 05:09:49;;;;;;;7.28;6.05;;;25.10;1.00;;;;;;5035621;28;20065;-68
2023/06/10 05:12:14;;;;;;;10.30;6.40;;;25.00;1.00;;;;;;5035671;28;20501;-68
2023/06/10 05:14:40;;;;;;;11.07;6.50;;;25.00;1.00;;;;;;5035664;28;20060;-68
2023/06/10 05:17:06;;;;;;;10.65;6.70;;;25.30;1.00;;;;;;5035734;28;20026;-68
2023/06/10 05:19:32;;;;;;;9.05;6.63;;;25.20;1.00;;;;;;5035710;28;20025;-69
2023/06/10 05:21:57;;;;;;;9.32;7.00;;;25.20;1.00;;;;;;5035282;28;20029;-68
2023/06/10 05:24:23;;;;;;;11.93;6.82;;;25.20;1.00;;;;;;5035446;28;20099;-68
2023/06/10 05:26:49;;;;;;;9.00;6.43;;;25.60;1.00;;;;;;5035636;28;20468;-68
2023/06/10 05:29:15;;;;;;;8.90;6.35;;;25.80;1.00;;;;;;5034907;28;20049;-68
2023/06/10 05:31:41;;;;;;;9.07;5.45;;;26.40;1.00;;;;;;5035275;28;20014;-68
2023/06/10 05:34:06;;;;;;;9.50;6.13;;;26.40;99.90;;;;;;5035397;28;20038;-68
2023/06/10 05:36:32;;;;;;;8.60;6.05;;;26.80;99.90;;;;;;5035370;28;20039;-68
2023/06/10 05:38:58;;;;;;;9.48;5.28;;;27.00;60.50;;;;;;5035150;28;20032;-68
2023/06/10 05:41:23;;;;;;;7.25;5.65;;;26.90;99.90;;;;;;5035225;28;20032;-69
2023/06/10 05:43:49;;;;;;;6.47;5.45;;;27.40;99.90;;;;;;5035310;28;20044;-69
2023/06/10 05:46:14;;;;;;;8.40;5.40;;;27.80;1.00;;;;;;5035160;28;20034;-68
2023/06/10 05:48:40;;;;;;;6.93;5.47;;;27.80;99.90;;;;;;5034948;28;20036;-69
2023/06/10 05:51:06;;;;;;;10.82;5.47;;;27.50;99.90;;;;;;5034926;28;20497;-68
2023/06/10 05:53:32;;;;;;;11.38;6.20;;;27.50;99.90;;;;;;5034813;28;20039;-68
2023/06/10 05:55:58;;;;;;;6.68;5.78;;;28.40;1.00;;;;;;5034994;28;20033;-68
2023/06/10 05:58:24;;;;;;;8.68;5.13;;;27.70;1.00;;;;;;5034949;28;20032;-68
2023/06/10 06:00:50;;;;;;;8.30;5.72;;;27.50;1.00;;;;;;5034622;28;20065;-69
2023/06/10 06:03:16;;;;;;;8.70;5.20;;;27.10;1.00;;;;;;5034746;28;20115;-69
2023/06/10 06:05:41;;;;;;;8.20;4.97;;;27.40;44.20;;;;;;5033269;28;20029;-69
2023/06/10 06:08:07;;;;;;;9.68;5.72;;;28.20;1.00;;;;;;5034533;28;20026;-69
2023/06/10 06:10:34;;;;;;;9.27;4.95;;;28.20;99.90;;;;;;5034350;28;20117;-69
2023/06/10 06:13:00;;;;;;;6.68;5.13;;;28.60;99.90;;;;;;5016949;28;20059;-69
2023/06/10 06:15:26;;;;;;;8.27;5.25;;;29.00;99.90;;;;;;5034421;28;20091;-69
2023/06/10 06:17:53;;;;;;;6.55;4.15;;;28.80;99.90;;;;;;5034574;28;20430;-68
2023/06/10 06:20:19;;;;;;;6.45;5.15;;;29.40;99.90;;;;;;5034511;28;20083;-69
2023/06/10 06:22:45;;;;;;;8.85;5.50;;;29.90;99.90;;;;;;5034339;28;20502;-68
2023/06/10 06:25:10;;;;;;;6.07;4.18;;;30.50;99.90;;;;;;5034309;28;20029;-69
2023/06/10 06:27:36;;;;;;;8.20;4.70;;;30.20;99.90;;;;;;5034174;28;20475;-68
2023/06/10 06:30:02;;;;;;;5.90;4.32;;;30.00;99.90;;;;;;5033876;28;20511;-69
2023/06/10 06:32:27;;;;;;;5.07;4.28;;;30.00;1.00;;;;;;5032906;28;20104;-69
2023/06/10 06:34:54;;;;;;;5.28;3.90;;;29.50;99.90;;;;;;5033120;28;20121;-69
2023/06/10 06:37:22;;;;;;;5.15;4.43;;;29.90;99.90;;;;;;5034167;28;20025;-70
2023/06/10 06:39:48;;;;;;;6.40;4.25;;;30.50;99.90;;;;;;5034010;28;20036;-70
2023/06/10 06:42:14;;;;;;;5.22;4.30;;;31.30;99.90;;;;;;5034142;28;20034;-70
2023/06/10 06:44:39;;;;;;;6.97;4.70;;;31.50;87.50;;;;;;5034088;28;20029;-70
2023/06/10 06:47:05;;;;;;;7.50;4.43;;;31.90;1.00;;;;;;5033854;28;20032;-70
2023/06/10 06:49:30;;;;;;;6.13;4.28;;;31.60;99.90;;;;;;5033727;28;20119;-69
2023/06/10 06:51:56;;;;;;;7.15;4.60;;;31.30;99.90;;;;;;5033926;28;20032;-69
2023/06/10 06:54:21;;;;;;;6.13;4.43;;;30.80;99.90;;;;;;5033727;28;20029;-69
2023/06/10 06:56:47;;;;;;;5.68;4.40;;;31.30;99.90;;;;;;5033785;28;20022;-70
2023/06/10 06:59:13;;;;;;;5.20;4.03;;;31.50;1.00;;;;;;5033633;28;20044;-70
2023/06/10 07:01:39;;;;;;;6.47;4.55;;;31.20;99.90;;;;;;5033625;28;20036;-69
2023/06/10 07:04:05;;;;;;;6.50;4.18;;;31.60;99.90;;;;;;5033684;28;20030;-69
2023/06/10 07:06:30;;;;;;;8.55;4.38;;;31.00;99.90;;;;;;5033571;28;20029;-69
2023/06/10 07:08:56;;;;;;;6.05;4.30;;;31.70;99.90;;;;;;5033454;28;20029;-70
2023/06/10 07:11:21;;;;;;;6.93;4.05;;;32.00;99.90;;;;;;5033563;28;20040;-70
2023/06/10 07:13:47;;;;;;;9.23;4.13;;;32.00;99.90;;;;;;5033664;28;20021;-67
2023/06/10 07:16:13;;;;;;;5.43;4.47;;;32.20;99.90;;;;;;5033430;28;20032;-67
2023/06/10 07:18:38;;;;;;;5.80;3.88;;;31.60;99.90;;;;;;5033531;28;20104;-67
2023/06/10 07:21:04;;;;;;;11.20;3.88;;;32.40;99.90;;;;;;5033491;28;20037;-67
2023/06/10 07:23:30;;;;;;;6.18;4.13;;;32.40;1.00;;;;;;5033332;28;20112;-67
2023/06/10 07:25:55;;;;;;;6.38;4.28;;;31.60;99.90;;;;;;5033274;28;20036;-67
2023/06/10 07:28:21;;;;;;;5.95;4.10;;;31.40;1.00;;;;;;5033281;28;20032;-67
2023/06/10 07:30:46;;;;;;;5.57;4.28;;;31.60;1.00;;;;;;5033191;28;20544;-67
2023/06/10 07:33:12;;;;;;;7.15;4.50;;;31.70;99.90;;;;;;5032945;28;20040;-67
2023/06/10 07:35:37;;;;;;;7.20;4.55;;;31.90;99.90;;;;;;5033610;28;20438;-67
2023/06/10 07:38:03;;;;;;;8.27;4.05;;;32.50;99.90;;;;;;5033311;28;20068;-67
2023/06/10 07:40:28;;;;;;;6.30;4.13;;;33.40;99.90;;;;;;5033076;28;20099;-68
2023/06/10 07:42:55;;;;;;;6.25;4.30;;;33.00;1.00;;;;;;5033330;28;20361;-68
2023/06/10 07:45:21;;;;;;;9.10;4.50;;;33.30;1.00;;;;;;5033610;28;20117;-68
2023/06/10 07:47:46;;;;;;;6.22;4.15;;;33.10;80.70;;;;;;5037449;28;20053;-68
2023/06/10 07:50:12;;;;;;;6.43;4.55;;;33.70;99.90;;;;;;5037169;28;20067;-68
2023/06/10 07:52:37;;;;;;;4.97;4.32;;;33.80;1.00;;;;;;5037267;28;20026;-68
2023/06/10 07:55:04;;;;;;;7.47;4.35;;;33.60;99.90;;;;;;5037160;28;20060;-69
2023/06/10 07:57:31;;;;;;;10.15;4.40;;;34.30;99.90;;;;;;5037085;28;20029;-68
2023/06/10 07:59:59;;;;;;;8.18;3.83;;;34.40;1.00;;;;;;5036843;28;20033;-68
2023/06/10 08:02:25;;;;;;;18.98;4.50;;;34.80;1.00;;;;;;5036997;28;20391;-68
2023/06/10 08:04:51;;;;;;;9.43;4.22;;;34.30;99.90;;;;;;5036628;28;20017;-68
2023/06/10 08:07:18;;;;;;;5.10;4.20;;;34.50;99.90;;;;;;5036687;28;20156;-68
2023/06/10 08:09:43;;;;;;;4.80;3.92;;;34.90;1.00;;;;;;5036839;28;20029;-68
2023/06/10 08:12:09;;;;;;;6.28;4.00;;;34.20;99.90;;;;;;5036881;28;20026;-68
2023/06/10 08:14:34;;;;;;;5.10;4.05;;;33.40;1.00;;;;;;5036740;28;20494;-68
2023/06/10 08:17:00;;;;;;;6.55;4.20;;;34.00;99.90;;;;;;5036844;28;20032;-68
2023/06/10 08:19:25;;;;;;;5.65;4.00;;;34.00;99.90;;;;;;5036823;28;20071;-68
2023/06/10 08:21:51;;;;;;;7.13;4.30;;;33.60;99.90;;;;;;5036716;28;20029;-68
2023/06/10 08:24:18;;;;;;;6.20;4.30;;;32.60;99.90;;;;;;5036574;28;20062;-69
2023/06/10 08:26:44;;;;;;;5.28;4.10;;;32.90;99.90;;;;;;5036517;28;20033;-69
2023/06/10 08:29:11;;;;;;;7.28;3.95;;;33.40;99.90;;;;;;5036422;28;20573;-68
2023/06/10 08:31:37;;;;;;;7.97;4.32;;;32.60;99.90;;;;;;5036390;28;20551;-69
2023/06/10 08:34:02;;;;;;;8.68;4.38;;;33.00;95.90;;;;;;5036531;28;20117;-68
2023/06/10 08:36:28;;;;;;;7.60;4.43;;;33.30;99.90;;;;;;5036457;28;20124;-68
2023/06/10 08:38:53;;;;;;;8.25;4.50;;;33.70;1.00;;;;;;5036220;28;20033;-69
2023/06/10 08:41:20;;;;;;;11.27;4.60;;;33.80;1.00;;;;;;5036188;28;20045;-68
2023/06/10 08:43:57;;;;;;;7.07;4.38;;;33.30;1.00;;;;;;5036468;28;20061;-69
2023/06/10 08:46:23;;;;;;;5.55;4.72;;;33.90;1.00;;;;;;5036193;28;20021;-68
2023/06/10 08:48:51;;;;;;;5.85;4.50;;;32.60;99.90;;;;;;5036113;28;20078;-68
2023/06/10 08:51:17;;;;;;;4.47;4.07;;;33.80;76.20;;;;;;5036028;28;20460;-68
2023/06/10 08:53:52;;;;;;;6.63;4.70;;;33.70;1.00;;;;;;5036179;28;20040;-68
2023/06/10 08:56:19;;;;;;;8.45;4.57;;;33.20;99.90;;;;;;5035987;28;20021;-69
2023/06/10 08:58:45;;;;;;;6.55;4.25;;;34.00;7.30;;;;;;5035207;28;20024;-68
2023/06/10 09:01:11;;;;;;;5.85;4.22;;;34.50;99.90;;;;;;5035926;28;20112;-69
2023/06/10 09:03:38;;;;;;;4.97;4.43;;;34.50;99.90;;;;;;5035794;28;20409;-69
2023/06/10 09:06:05;;;;;;;10.10;4.65;;;35.00;1.00;;;;;;5035947;28;20033;-69
2023/06/10 09:08:31;;;;;;;9.13;4.40;;;34.60;91.10;;;;;;5035667;28;20026;-68
2023/06/10 09:10:57;;;;;;;7.32;4.57;;;34.30;17.10;;;;;;5035688;28;20030;-68
2023/06/10 09:13:23;;;;;;;6.68;4.63;;;34.70;1.00;;;;;;5035842;28;20072;-68
2023/06/10 09:15:49;;;;;;;8.82;4.45;;;34.60;99.90;;;;;;5035454;28;20478;-68
2023/06/10 09:18:14;;;;;;;7.05;4.28;;;35.30;1.00;;;;;;5035672;28;20017;-68
2023/06/10 09:20:41;;;;;;;6.22;4.68;;;35.30;1.00;;;;;;5035666;28;20117;-68
2023/06/10 09:23:07;;;;;;;7.40;4.53;;;35.20;99.90;;;;;;5035601;28;20570;-68
2023/06/10 09:25:37;;;;;;;7.15;4.65;;;35.30;99.90;;;;;;5035336;28;20104;-68
2023/06/10 09:28:03;;;;;;;10.32;4.90;;;34.50;99.90;;;;;;5035367;28;20156;-68
2023/06/10 09:30:31;;;;;;;5.07;4.57;;;34.50;1.00;;;;;;5033959;28;20060;-68
2023/06/10 09:33:01;;;;;;;5.40;4.57;;;34.50;99.90;;;;;;5035282;28;20028;-68
2023/06/10 09:35:28;;;;;;;7.43;5.13;;;35.10;99.90;;;;;;5035373;28;20502;-68
2023/06/10 09:37:57;;;;;;;5.15;4.55;;;34.60;99.90;;;;;;5035215;28;20024;-68
2023/06/10 09:40:23;;;;;;;8.30;4.75;;;34.70;1.00;;;;;;5035346;28;20029;-68
2023/06/10 09:42:58;;;;;;;6.00;4.68;;;35.10;1.00;;;;;;5035291;28;20483;-68
2023/06/10 09:45:30;;;;;;;8.30;4.97;;;34.60;59.70;;;;;;5034885;28;20120;-68
2023/06/10 09:47:55;;;;;;;5.65;4.63;;;35.40;99.90;;;;;;5035029;28;20033;-68
2023/06/10 09:50:21;;;;;;;7.93;5.20;;;34.50;42.90;;;;;;5034921;28;20546;-68
2023/06/10 09:52:48;;;;;;;5.22;4.82;;;33.90;99.90;;;;;;5033974;28;20080;-68
2023/06/10 09:55:13;;;;;;;6.00;4.93;;;34.30;99.90;;;;;;5034740;28;20502;-68
2023/06/10 09:57:41;;;;;;;6.63;5.18;;;34.90;99.90;;;;;;5034911;28;20025;-68
2023/06/10 10:00:09;;;;;;;6.07;4.80;;;33.90;99.90;;;;;;5034751;28;20155;-68
2023/06/10 10:02:52;;;;;;;5.80;4.90;;;33.60;1.00;;;;;;5034784;28;20052;-68
2023/06/10 10:05:21;;;;;;;7.38;4.82;;;34.40;1.00;;;;;;5034706;28;20502;-68
2023/06/10 10:07:47;;;;;;;8.90;5.10;;;34.80;1.00;;;;;;5034547;28;20038;-68
2023/06/10 10:10:14;;;;;;;10.63;5.20;;;34.00;99.90;;;;;;5033174;28;20034;-68
2023/06/10 10:12:41;;;;;;;5.65;5.03;;;34.40;99.90;;;;;;5034759;28;20057;-67
2023/06/10 10:15:08;;;;;;;5.60;5.10;;;34.00;99.90;;;;;;5034387;28;20116;-68
2023/06/10 10:17:47;;;;;;;6.57;5.53;;;33.60;99.90;;;;;;5034316;28;20022;-68
2023/06/10 10:20:16;;;;;;;7.15;5.63;;;34.10;1.00;;;;;;5034386;28;20053;-68
2023/06/10 10:22:44;;;;;;;8.20;5.20;;;33.90;1.00;;;;;;5034579;28;20475;-68
2023/06/10 10:25:13;;;;;;;9.85;5.55;;;33.40;99.90;;;;;;5033286;28;20049;-67
2023/06/10 10:27:44;;;;;;;6.93;5.28;;;34.30;99.90;;;;;;5034188;28;20041;-68
2023/06/10 10:30:11;;;;;;;9.80;5.20;;;34.30;99.90;;;;;;5033995;28;20095;-68
2023/06/10 10:32:45;;;;;;;8.20;5.25;;;34.80;99.90;;;;;;5034170;28;20029;-68
2023/06/10 10:35:18;;;;;;;7.55;5.00;;;34.00;89.50;;;;;;5034003;28;20484;-68
2023/06/10 10:37:43;;;;;;;8.02;5.25;;;34.30;99.90;;;;;;5034220;28;20434;-68
2023/06/10 10:40:11;;;;;;;8.30;5.10;;;34.10;1.00;;;;;;5033783;28;20117;-68
2023/06/10 10:42:37;;;;;;;10.23;5.07;;;34.70;1.00;;;;;;5033882;28;20026;-68
2023/06/10 10:45:04;;;;;;;7.38;5.25;;;33.80;99.90;;;;;;5033697;28;20026;-68
2023/06/10 10:47:32;;;;;;;7.45;5.53;;;33.50;99.90;;;;;;5033810;28;20087;-68
2023/06/10 10:49:59;;;;;;;7.53;5.60;;;33.60;99.90;;;;;;5033868;28;20057;-67
2023/06/10 10:52:25;;;;;;;7.43;5.65;;;33.30;99.90;;;;;;5033962;28;20021;-67
2023/06/10 10:54:54;;;;;;;6.75;4.72;;;32.80;99.90;;;;;;5034015;28;20112;-67
2023/06/10 10:57:22;;;;;;;5.93;5.43;;;32.30;1.00;;;;;;5033640;28;20088;-67
2023/06/10 10:59:52;;;;;;;7.28;5.57;;;32.20;80.80;;;;;;5033796;28;20035;-68
2023/06/10 11:02:31;;;;;;;6.25;5.65;;;32.00;99.90;;;;;;5033881;28;20021;-68
2023/06/10 11:04:57;;;;;;;6.85;5.95;;;31.70;9.20;;;;;;5033795;28;20030;-68
2023/06/10 11:07:25;;;;;;;7.15;6.45;;;31.80;99.90;;;;;;5033421;28;20462;-68
2023/06/10 11:10:12;;;;;;;7.70;6.03;;;31.70;1.00;;;;;;5033226;28;20083;-68
2023/06/10 11:15:24;;;;;;;9.05;6.50;;;31.50;1.00;;;;;;5111235;27;20372;-69
2023/06/10 11:18:10;;;;;;;7.20;6.07;;;30.50;99.90;;;;;;5111044;28;20065;-69
2023/06/10 11:21:00;;;;;;;8.98;6.38;;;31.00;99.90;;;;;;5109836;28;20481;-69
2023/06/10 11:26:26;;;;;;;7.35;6.15;;;31.00;99.90;;;;;;5111239;27;20351;-68
2023/06/10 11:31:32;;;;;;;7.93;6.22;;;30.20;99.90;;;;;;5111140;27;20840;-69
2023/06/10 11:34:03;;;;;;;7.05;6.38;;;31.00;99.90;;;;;;5111182;28;20081;-69
2023/06/10 11:36:29;;;;;;;8.93;6.10;;;30.80;1.00;;;;;;5111005;28;20059;-69
2023/06/10 11:38:58;;;;;;;8.38;6.00;;;31.30;1.00;;;;;;5111123;28;20020;-69
2023/06/10 11:41:25;;;;;;;7.05;6.07;;;31.30;1.00;;;;;;5110877;28;20024;-69
2023/06/10 11:43:52;;;;;;;7.72;5.40;;;31.40;1.00;;;;;;5110786;28;20024;-69
2023/06/10 11:46:17;;;;;;;10.68;6.18;;;31.50;1.00;;;;;;5111111;28;20497;-69
2023/06/10 11:48:59;;;;;;;7.90;5.28;;;31.40;1.00;;;;;;5111009;28;20106;-69
2023/06/10 11:51:27;;;;;;;9.40;6.15;;;31.20;20.80;;;;;;5110726;28;20092;-69
2023/06/10 11:53:53;;;;;;;8.90;6.28;;;31.30;1.00;;;;;;5109587;28;20027;-69
2023/06/10 11:56:27;;;;;;;10.73;5.50;;;31.50;1.00;;;;;;5110856;28;20038;-69
2023/06/10 11:58:55;;;;;;;7.55;5.85;;;31.40;68.10;;;;;;5110692;28;20030;-69
2023/06/10 12:01:23;;;;;;;7.13;6.20;;;31.30;99.90;;;;;;5110629;28;20489;-69
2023/06/10 12:04:00;;;;;;;7.18;5.68;;;31.40;99.90;;;;;;5110643;28;20481;-69
2023/06/10 12:06:26;;;;;;;6.80;5.90;;;31.00;99.90;;;;;;5110786;28;20034;-69
2023/06/10 12:08:53;;;;;;;7.40;5.68;;;31.10;79.50;;;;;;5110483;28;20078;-69
2023/06/10 12:11:20;;;;;;;8.38;5.97;;;31.30;99.90;;;;;;5110360;28;20535;-69
2023/06/10 12:13:49;;;;;;;8.98;5.72;;;30.70;99.90;;;;;;5110129;28;20099;-69
2023/06/10 12:16:15;;;;;;;6.38;5.47;;;30.60;99.90;;;;;;5110413;28;20434;-69
2023/06/10 12:18:44;;;;;;;7.47;6.63;;;30.70;99.90;;;;;;5110247;28;20055;-69
2023/06/10 12:21:26;;;;;;;11.57;6.50;;;30.70;1.00;;;;;;5110381;28;20093;-69
2023/06/10 12:24:09;;;;;;;8.50;6.60;;;30.70;99.90;;;;;;5110284;28;20057;-69
2023/06/10 12:29:17;;;;;;;11.68;5.95;;;30.90;7.20;;;;;;5111288;27;20434;-69
2023/06/10 12:32:05;;;;;;;7.95;5.78;;;31.10;99.90;;;;;;5111313;28;20077;-69
2023/06/10 12:34:38;;;;;;;7.40;5.85;;;30.80;99.90;;;;;;5111015;28;20393;-68
2023/06/10 12:37:06;;;;;;;8.32;5.78;;;30.70;99.90;;;;;;5109918;28;20432;-69
2023/06/10 12:39:33;;;;;;;6.18;5.47;;;30.80;99.90;;;;;;5110073;28;20054;-70
2023/06/10 12:41:59;;;;;;;10.30;5.85;;;31.00;99.90;;;;;;5111020;28;20431;-69
2023/06/10 12:44:30;;;;;;;8.35;6.40;;;31.50;99.90;;;;;;5110907;28;20477;-69
2023/06/10 12:46:55;;;;;;;8.13;6.22;;;31.10;99.90;;;;;;5110781;28;20385;-69
2023/06/10 12:49:21;;;;;;;10.82;6.57;;;31.10;99.90;;;;;;5110681;28;20024;-69
2023/06/10 12:51:47;;;;;;;7.88;6.53;;;30.90;99.90;;;;;;5110839;28;20366;-69
2023/06/10 12:54:13;;;;;;;7.60;6.47;;;30.60;99.90;;;;;;5111013;28;20024;-69